createdAt,value
2022-08-28T00:01:22.103Z,14.37
2022-08-28T00:04:11.715Z,14.57
2022-08-28T00:06:59.307Z,15.29
2022-08-28T00:09:46.915Z,15.41
2022-08-28T00:12:34.528Z,15.01
2022-08-28T00:15:22.156Z,15.84
2022-08-28T00:18:09.805Z,15.69
2022-08-28T00:20:57.627Z,16.13
2022-08-28T00:23:45.242Z,16.19
2022-08-28T00:26:32.878Z,16.09
2022-08-28T00:29:20.493Z,16.58
2022-08-28T00:32:08.100Z,16.56
2022-08-28T00:34:55.799Z,16.34
2022-08-28T00:37:43.412Z,16.25
2022-08-28T00:40:33.066Z,16.01
2022-08-28T00:43:21.530Z,16.08
2022-08-28T00:46:09.178Z,15.93
2022-08-28T00:48:56.846Z,16.16
2022-08-28T00:51:44.462Z,15.64
2022-08-28T00:54:32.044Z,15.96
2022-08-28T00:57:19.677Z,15.66
2022-08-28T01:00:08.486Z,15.60
2022-08-28T01:02:56.132Z,14.58
2022-08-28T01:05:43.812Z,14.57
2022-08-28T01:08:31.418Z,14.56
2022-08-28T01:11:19.021Z,14.52
2022-08-28T01:14:06.649Z,14.78
2022-08-28T01:16:54.243Z,14.82
2022-08-28T01:19:41.977Z,14.19
2022-08-28T01:22:29.564Z,13.61
2022-08-28T01:25:18.665Z,13.60
2022-08-28T01:28:06.258Z,12.43
2022-08-28T01:30:53.910Z,11.85
2022-08-28T01:33:42.493Z,11.41
2022-08-28T01:36:30.337Z,11.68
2022-08-28T01:39:17.926Z,10.86
2022-08-28T01:42:05.535Z,11.01
2022-08-28T01:44:53.116Z,10.69
2022-08-28T01:47:40.725Z,10.52
2022-08-28T01:50:28.324Z,11.52
2022-08-28T01:53:15.919Z,11.73
2022-08-28T01:56:04.545Z,12.65
2022-08-28T01:58:52.404Z,12.96
2022-08-28T02:01:40.087Z,13.46
2022-08-28T02:04:27.788Z,13.98
2022-08-28T02:07:19.791Z,13.47
2022-08-28T02:10:07.421Z,14.01
2022-08-28T02:12:55.037Z,13.82
2022-08-28T02:15:46.844Z,14.46
2022-08-28T02:18:34.509Z,14.43
2022-08-28T02:21:22.134Z,14.56
2022-08-28T02:24:09.737Z,14.56
2022-08-28T02:26:57.362Z,13.84
2022-08-28T02:29:44.971Z,13.73
2022-08-28T02:32:32.555Z,13.80
2022-08-28T02:35:20.187Z,13.90
2022-08-28T02:38:07.832Z,14.75
2022-08-28T02:40:55.468Z,14.51
2022-08-28T02:43:43.064Z,14.80
2022-08-28T02:46:30.725Z,15.55
2022-08-28T02:49:18.413Z,15.86
2022-08-28T02:52:06.054Z,16.29
2022-08-28T02:54:53.645Z,16.80
2022-08-28T02:57:41.270Z,16.76
2022-08-28T03:00:28.878Z,17.12
2022-08-28T03:03:16.480Z,17.13
2022-08-28T03:06:04.103Z,15.53
2022-08-28T03:08:51.695Z,16.36
2022-08-28T03:11:39.309Z,16.18
2022-08-28T03:14:26.895Z,16.29
2022-08-28T03:17:14.523Z,16.41
2022-08-28T03:20:02.167Z,17.10
2022-08-28T03:22:49.798Z,17.00
2022-08-28T03:25:37.415Z,16.20
2022-08-28T03:28:25.020Z,15.77
2022-08-28T03:31:12.767Z,14.99
2022-08-28T03:34:02.412Z,15.72
2022-08-28T03:36:50.033Z,15.54
2022-08-28T03:39:37.627Z,16.04
2022-08-28T03:42:25.277Z,15.90
2022-08-28T03:45:12.878Z,15.53
2022-08-28T03:48:00.523Z,16.12
2022-08-28T03:50:48.129Z,16.24
2022-08-28T03:53:36.768Z,16.13
2022-08-28T03:56:24.409Z,14.99
2022-08-28T03:59:12.050Z,16.47
2022-08-28T04:01:59.657Z,16.91
2022-08-28T04:04:49.271Z,15.65
2022-08-28T04:07:36.856Z,16.23
2022-08-28T04:10:24.481Z,16.70
2022-08-28T04:13:12.071Z,17.15
2022-08-28T04:15:59.699Z,15.71
2022-08-28T04:18:47.298Z,16.86
2022-08-28T04:21:34.915Z,16.46
2022-08-28T04:24:22.508Z,16.72
2022-08-28T04:27:12.196Z,17.90
2022-08-28T04:29:59.790Z,16.82
2022-08-28T04:32:47.561Z,16.34
2022-08-28T04:35:35.230Z,17.03
2022-08-28T04:38:22.939Z,16.50
2022-08-28T04:41:10.555Z,15.81
2022-08-28T04:43:58.143Z,17.07
2022-08-28T04:46:47.308Z,18.48
2022-08-28T04:49:36.003Z,16.51
2022-08-28T04:52:23.729Z,17.44
2022-08-28T04:55:11.318Z,16.10
2022-08-28T04:57:59.026Z,16.61
2022-08-28T05:00:46.652Z,14.78
2022-08-28T05:03:34.373Z,15.49
2022-08-28T05:06:21.993Z,16.49
2022-08-28T05:09:10.125Z,14.00
2022-08-28T05:11:57.729Z,15.96
2022-08-28T05:14:45.346Z,16.04
2022-08-28T05:17:32.969Z,15.57
2022-08-28T05:20:20.668Z,16.13
2022-08-28T05:23:08.264Z,15.08
2022-08-28T05:25:55.924Z,15.73
2022-08-28T05:28:43.529Z,15.62
2022-08-28T05:31:31.182Z,15.49
2022-08-28T05:34:18.815Z,14.47
2022-08-28T05:37:06.431Z,15.40
2022-08-28T05:39:54.088Z,14.78
2022-08-28T05:42:41.746Z,16.15
2022-08-28T05:45:29.376Z,18.22
2022-08-28T05:48:17.006Z,19.14
2022-08-28T05:51:04.604Z,15.46
2022-08-28T05:53:52.269Z,16.70
2022-08-28T05:56:39.870Z,14.25
2022-08-28T05:59:29.500Z,15.75
2022-08-28T06:02:17.150Z,14.33
2022-08-28T06:05:04.776Z,16.63
2022-08-28T06:07:52.383Z,16.29
2022-08-28T06:10:40.061Z,14.06
2022-08-28T06:13:27.945Z,13.64
2022-08-28T06:16:16.270Z,15.03
2022-08-28T06:19:03.948Z,14.85
2022-08-28T06:21:51.675Z,14.18
2022-08-28T06:24:39.282Z,13.09
2022-08-28T06:27:26.913Z,14.34
2022-08-28T06:30:15.253Z,16.91
2022-08-28T06:33:02.879Z,13.39
2022-08-28T06:35:50.489Z,15.43
2022-08-28T06:38:38.117Z,14.58
2022-08-28T06:41:25.714Z,14.02
2022-08-28T06:44:15.312Z,14.24
2022-08-28T06:47:02.900Z,14.35
2022-08-28T06:49:50.523Z,14.28
2022-08-28T06:52:38.129Z,13.33
2022-08-28T06:55:30.533Z,14.50
2022-08-28T06:58:18.131Z,14.32
2022-08-28T07:01:05.782Z,13.01
2022-08-28T07:03:53.441Z,13.30
2022-08-28T07:06:41.057Z,14.48
2022-08-28T07:09:28.674Z,14.50
2022-08-28T07:12:16.273Z,16.51
2022-08-28T07:15:03.903Z,15.04
2022-08-28T07:17:51.632Z,14.47
2022-08-28T07:20:39.238Z,16.60
2022-08-28T07:23:26.846Z,17.30
2022-08-28T07:26:14.499Z,16.42
2022-08-28T07:29:10.597Z,14.85
2022-08-28T07:31:58.825Z,14.48
2022-08-28T07:34:46.469Z,15.18
2022-08-28T07:37:34.082Z,14.49
2022-08-28T07:40:22.755Z,19.52
2022-08-28T07:43:10.388Z,16.52
2022-08-28T07:45:58.049Z,17.58
2022-08-28T07:48:45.669Z,16.16
2022-08-28T07:51:33.277Z,16.05
2022-08-28T07:54:20.873Z,19.35
2022-08-28T07:57:08.489Z,19.63
2022-08-28T07:59:56.122Z,19.12
2022-08-28T08:02:43.724Z,20.89
2022-08-28T08:05:31.350Z,23.62
2022-08-28T08:08:19.136Z,21.29
2022-08-28T08:11:06.832Z,20.34
2022-08-28T08:13:58.780Z,19.80
2022-08-28T08:16:46.783Z,20.19
2022-08-28T08:19:34.395Z,19.18
2022-08-28T08:22:22.028Z,21.40
2022-08-28T08:25:09.633Z,18.73
2022-08-28T08:27:57.341Z,19.94
2022-08-28T08:30:46.964Z,19.84
2022-08-28T08:33:34.649Z,20.71
2022-08-28T08:36:22.267Z,20.40
2022-08-28T08:39:09.912Z,20.01
2022-08-28T08:41:57.497Z,19.53
2022-08-28T08:44:45.118Z,20.32
2022-08-28T08:47:32.725Z,21.02
2022-08-28T08:50:20.336Z,20.17
2022-08-28T08:53:07.939Z,19.84
2022-08-28T08:55:55.570Z,19.36
2022-08-28T08:58:43.169Z,19.34
2022-08-28T09:01:30.832Z,19.69
2022-08-28T09:04:21.619Z,20.16
2022-08-28T09:07:09.382Z,20.17
2022-08-28T09:09:56.999Z,19.63
2022-08-28T09:12:44.614Z,19.67
2022-08-28T09:15:32.303Z,19.46
2022-08-28T09:18:19.971Z,18.61
2022-08-28T09:21:07.565Z,19.76
2022-08-28T09:23:55.184Z,19.97
2022-08-28T09:26:42.883Z,19.81
2022-08-28T09:29:30.656Z,19.18
2022-08-28T09:32:18.290Z,18.53
2022-08-28T09:35:05.892Z,19.46
2022-08-28T09:37:53.846Z,19.47
2022-08-28T09:40:41.511Z,20.76
2022-08-28T09:43:31.147Z,20.96
2022-08-28T09:46:18.784Z,19.98
2022-08-28T09:49:06.470Z,20.28
2022-08-28T09:51:54.104Z,20.23
2022-08-28T09:54:41.720Z,19.28
2022-08-28T09:57:29.340Z,19.29
2022-08-28T10:00:16.948Z,18.37
2022-08-28T10:03:07.645Z,18.76
2022-08-28T10:05:55.439Z,19.69
2022-08-28T10:08:43.058Z,18.89
2022-08-28T10:11:30.687Z,18.29
2022-08-28T10:14:18.317Z,18.61
2022-08-28T10:17:05.923Z,18.24
2022-08-28T10:19:53.544Z,17.40
2022-08-28T10:22:41.144Z,17.69
2022-08-28T10:25:28.851Z,18.16
2022-08-28T10:28:16.464Z,16.71
2022-08-28T10:31:04.165Z,16.44
2022-08-28T10:33:51.930Z,15.93
2022-08-28T10:36:39.531Z,15.37
2022-08-28T10:39:27.235Z,15.98
2022-08-28T10:42:16.816Z,15.82
2022-08-28T10:45:04.433Z,15.67
2022-08-28T10:47:52.039Z,15.22
2022-08-28T10:50:39.665Z,15.78
2022-08-28T10:53:27.304Z,14.98
2022-08-28T10:56:14.931Z,15.11
2022-08-28T10:59:02.533Z,15.04
2022-08-28T11:01:50.254Z,14.71
2022-08-28T11:04:37.899Z,14.57
2022-08-28T11:07:25.511Z,14.94
2022-08-28T11:10:13.106Z,14.60
2022-08-28T11:13:00.720Z,14.37
2022-08-28T11:15:48.347Z,14.21
2022-08-28T11:18:35.965Z,14.29
2022-08-28T11:21:23.590Z,14.27
2022-08-28T11:24:11.176Z,13.93
2022-08-28T11:26:58.799Z,13.76
2022-08-28T11:29:46.411Z,13.52
2022-08-28T11:32:34.026Z,13.50
2022-08-28T11:35:21.611Z,13.91
2022-08-28T11:38:09.251Z,13.23
2022-08-28T11:40:56.855Z,13.28
2022-08-28T11:43:44.458Z,13.07
2022-08-28T11:46:32.106Z,13.37
2022-08-28T11:49:19.787Z,13.03
2022-08-28T11:52:07.385Z,13.32
2022-08-28T11:54:55.013Z,12.79
2022-08-28T11:57:42.624Z,13.38
2022-08-28T12:00:30.261Z,12.67
2022-08-28T12:03:17.856Z,12.51
2022-08-28T12:06:05.560Z,12.71
2022-08-28T12:08:53.146Z,12.53
2022-08-28T12:11:40.771Z,12.58
2022-08-28T12:14:28.369Z,12.39
2022-08-28T12:17:15.983Z,11.77
2022-08-28T12:20:03.592Z,11.44
2022-08-28T12:22:51.394Z,10.97
2022-08-28T12:25:39.004Z,11.27
2022-08-28T12:28:26.622Z,10.63
2022-08-28T12:31:14.297Z,11.11
2022-08-28T12:34:01.979Z,10.27
2022-08-28T12:36:52.105Z,10.22
2022-08-28T12:39:39.976Z,10.28
2022-08-28T12:42:27.677Z,10.46
2022-08-28T12:45:17.294Z,10.05
2022-08-28T12:48:05.221Z,9.45
2022-08-28T12:50:52.816Z,9.73
2022-08-28T12:53:40.504Z,9.53
2022-08-28T12:56:28.075Z,9.49
2022-08-28T12:59:15.677Z,9.51
2022-08-28T13:02:03.374Z,9.15
2022-08-28T13:04:51.061Z,9.09
2022-08-28T13:07:38.639Z,9.21
2022-08-28T13:10:29.829Z,9.07
2022-08-28T13:13:17.622Z,9.25
2022-08-28T13:16:05.367Z,8.97
2022-08-28T13:18:56.471Z,8.76
2022-08-28T13:21:47.156Z,8.76
2022-08-28T13:24:34.747Z,8.19
2022-08-28T13:27:22.320Z,8.59
2022-08-28T13:30:10.025Z,8.28
2022-08-28T13:32:59.591Z,8.23
2022-08-28T13:35:47.279Z,7.86
2022-08-28T13:38:34.869Z,7.74
2022-08-28T13:41:22.538Z,7.45
2022-08-28T13:44:10.157Z,7.77
2022-08-28T13:46:57.761Z,7.39
2022-08-28T13:49:45.349Z,7.22
2022-08-28T13:52:33.044Z,7.23
2022-08-28T13:55:20.625Z,7.08
2022-08-28T13:58:10.873Z,7.17
2022-08-28T14:00:58.510Z,6.82
2022-08-28T14:03:46.200Z,6.58
2022-08-28T14:06:33.767Z,6.40
2022-08-28T14:09:21.367Z,6.03
2022-08-28T14:12:10.195Z,6.30
2022-08-28T14:14:57.833Z,6.05
2022-08-28T14:17:45.417Z,5.50
2022-08-28T14:20:33.015Z,5.51
2022-08-28T14:23:20.594Z,5.36
2022-08-28T14:26:08.188Z,5.15
2022-08-28T14:28:55.779Z,4.81
2022-08-28T14:31:43.429Z,4.95
2022-08-28T14:34:31.051Z,5.36
2022-08-28T14:37:18.666Z,5.59
2022-08-28T14:40:06.359Z,5.65
2022-08-28T14:42:53.993Z,5.83
2022-08-28T14:45:41.634Z,6.20
2022-08-28T14:48:30.390Z,5.82
2022-08-28T14:51:19.949Z,5.70
2022-08-28T14:54:07.635Z,5.89
2022-08-28T14:56:55.327Z,5.31
2022-08-28T14:59:42.899Z,6.18
2022-08-28T15:02:30.496Z,6.02
2022-08-28T15:05:18.080Z,5.75
2022-08-28T15:08:07.255Z,5.62
2022-08-28T15:10:54.861Z,6.49
2022-08-28T15:13:42.439Z,6.01
2022-08-28T15:16:30.602Z,6.09
2022-08-28T15:19:18.271Z,5.54
2022-08-28T15:22:05.881Z,6.05
2022-08-28T15:24:53.493Z,5.92
2022-08-28T15:27:43.339Z,6.73
2022-08-28T15:30:30.931Z,6.59
2022-08-28T15:33:18.546Z,5.90
2022-08-28T15:36:06.137Z,6.33
2022-08-28T15:38:53.726Z,6.78
2022-08-28T15:41:44.187Z,6.32
2022-08-28T15:44:31.782Z,6.54
2022-08-28T15:47:19.475Z,6.24
2022-08-28T15:50:07.056Z,5.81
2022-08-28T15:52:54.768Z,6.10
2022-08-28T15:55:42.347Z,6.83
2022-08-28T15:58:29.948Z,6.93
2022-08-28T16:01:17.655Z,6.49
2022-08-28T16:04:05.323Z,6.78
2022-08-28T16:07:00.482Z,6.34
2022-08-28T16:09:48.485Z,6.15
2022-08-28T16:12:36.054Z,6.06
2022-08-28T16:15:23.725Z,6.48
2022-08-28T16:18:11.318Z,6.12
2022-08-28T16:21:04.049Z,6.40
2022-08-28T16:23:52.472Z,6.69
2022-08-28T16:26:40.051Z,6.25
2022-08-28T16:29:27.821Z,6.41
2022-08-28T16:32:16.458Z,6.02
2022-08-28T16:35:04.032Z,6.44
2022-08-28T16:37:55.013Z,6.31
2022-08-28T16:40:42.666Z,6.32
2022-08-28T16:43:30.305Z,6.50
2022-08-28T16:46:18.103Z,6.65
2022-08-28T16:49:05.739Z,6.41
2022-08-28T16:51:53.329Z,6.36
2022-08-28T16:54:46.082Z,6.09
2022-08-28T16:57:36.408Z,6.44
2022-08-28T17:00:24.004Z,6.16
2022-08-28T17:03:12.542Z,6.51
2022-08-28T17:06:00.138Z,6.75
2022-08-28T17:08:47.727Z,7.15
2022-08-28T17:11:35.324Z,6.81
2022-08-28T17:14:22.935Z,7.00
2022-08-28T17:17:10.523Z,7.10
2022-08-28T17:19:58.138Z,6.69
2022-08-28T17:22:45.734Z,7.05
2022-08-28T17:25:35.352Z,6.68
2022-08-28T17:28:22.957Z,6.39
2022-08-28T17:31:10.729Z,7.05
2022-08-28T17:33:58.358Z,6.93
2022-08-28T17:36:45.952Z,6.90
2022-08-28T17:39:34.605Z,7.34
2022-08-28T17:42:22.209Z,7.30
2022-08-28T17:45:09.798Z,7.22
2022-08-28T17:47:57.410Z,7.34
2022-08-28T17:50:45.001Z,7.48
2022-08-28T17:53:32.616Z,7.59
2022-08-28T17:56:20.325Z,7.67
2022-08-28T17:59:20.789Z,7.43
2022-08-28T18:02:08.473Z,7.44
2022-08-28T18:04:56.140Z,7.28
2022-08-28T18:07:43.790Z,7.54
2022-08-28T18:10:31.391Z,7.97
2022-08-28T18:13:18.997Z,7.92
2022-08-28T18:16:06.671Z,7.73
2022-08-28T18:18:55.903Z,7.61
2022-08-28T18:21:43.484Z,7.84
2022-08-28T18:24:31.077Z,7.91
2022-08-28T18:27:19.710Z,8.10
2022-08-28T18:30:07.302Z,8.35
2022-08-28T18:32:54.910Z,8.57
2022-08-28T18:35:49.196Z,8.76
2022-08-28T18:38:37.118Z,9.06
2022-08-28T18:41:25.673Z,8.90
2022-08-28T18:44:24.271Z,8.73
2022-08-28T18:47:12.061Z,8.89
2022-08-28T18:49:59.665Z,9.06
2022-08-28T18:52:51.295Z,8.93
2022-08-28T18:55:38.892Z,8.52
2022-08-28T18:58:26.486Z,9.16
2022-08-28T19:01:14.654Z,8.79
2022-08-28T19:04:02.271Z,9.53
2022-08-28T19:06:51.872Z,9.57
2022-08-28T19:09:39.471Z,9.57
2022-08-28T19:12:27.093Z,9.81
2022-08-28T19:15:14.675Z,9.35
2022-08-28T19:18:02.381Z,9.35
2022-08-28T19:20:50.941Z,10.24
2022-08-28T19:23:39.256Z,10.21
2022-08-28T19:26:30.858Z,9.97
2022-08-28T19:29:18.481Z,9.71
2022-08-28T19:32:06.059Z,9.52
2022-08-28T19:34:53.725Z,9.93
2022-08-28T19:37:42.726Z,9.82
2022-08-28T19:40:30.490Z,9.72
2022-08-28T19:43:18.084Z,10.14
2022-08-28T19:46:05.723Z,9.78
2022-08-28T19:48:53.396Z,9.78
2022-08-28T19:51:41.010Z,9.77
2022-08-28T19:54:28.617Z,9.86
2022-08-28T19:57:16.241Z,9.71
2022-08-28T20:00:08.005Z,9.87
2022-08-28T20:02:55.674Z,10.20
2022-08-28T20:05:43.404Z,9.89
2022-08-28T20:08:31.000Z,10.03
2022-08-28T20:11:18.613Z,9.50
2022-08-28T20:14:06.299Z,10.16
2022-08-28T20:16:53.882Z,9.38
2022-08-28T20:19:41.488Z,9.32
2022-08-28T20:22:29.079Z,9.44
2022-08-28T20:25:16.686Z,9.36
2022-08-28T20:28:04.263Z,9.46
2022-08-28T20:30:51.943Z,9.31
2022-08-28T20:33:39.567Z,9.20
2022-08-28T20:36:27.162Z,9.59
2022-08-28T20:39:14.785Z,9.20
2022-08-28T20:42:02.430Z,9.31
2022-08-28T20:44:50.038Z,9.47
2022-08-28T20:47:39.095Z,9.30
2022-08-28T20:50:26.689Z,9.07
2022-08-28T20:53:14.306Z,8.77
2022-08-28T20:56:16.991Z,8.83
2022-08-28T20:59:04.579Z,9.18
2022-08-28T21:01:52.234Z,9.48
2022-08-28T21:04:39.972Z,9.81
2022-08-28T21:07:27.649Z,9.88
2022-08-28T21:10:15.248Z,9.70
2022-08-28T21:13:02.978Z,9.18
2022-08-28T21:15:50.558Z,9.54
2022-08-28T21:18:45.542Z,10.05
2022-08-28T21:21:45.723Z,10.06
2022-08-28T21:24:34.061Z,10.39
2022-08-28T21:27:21.645Z,10.77
2022-08-28T21:30:09.548Z,10.12
2022-08-28T21:32:57.155Z,10.54
2022-08-28T21:35:44.768Z,10.57
2022-08-28T21:38:32.363Z,11.60
2022-08-28T21:41:20.086Z,11.16
2022-08-28T21:44:07.671Z,11.31
2022-08-28T21:46:55.267Z,11.01
2022-08-28T21:49:42.894Z,11.25
2022-08-28T21:52:30.503Z,11.09
2022-08-28T21:55:18.125Z,11.46
2022-08-28T21:58:05.725Z,10.96
2022-08-28T22:00:53.353Z,11.29
2022-08-28T22:03:40.976Z,11.08
2022-08-28T22:06:28.602Z,11.54
2022-08-28T22:09:16.194Z,10.81
2022-08-28T22:12:03.923Z,10.75
2022-08-28T22:14:51.509Z,10.24
2022-08-28T22:17:39.129Z,10.25
2022-08-28T22:20:26.737Z,10.61
2022-08-28T22:23:14.336Z,10.32
2022-08-28T22:26:01.953Z,10.64
2022-08-28T22:28:49.570Z,10.72
2022-08-28T22:31:45.852Z,11.24
2022-08-28T22:34:33.934Z,10.95
2022-08-28T22:37:21.544Z,10.88
2022-08-28T22:40:09.506Z,10.77
2022-08-28T22:43:00.949Z,11.10
2022-08-28T22:45:48.600Z,11.66
2022-08-28T22:48:36.237Z,11.47
2022-08-28T22:51:23.847Z,11.61
2022-08-28T22:54:11.435Z,11.45
2022-08-28T22:56:59.067Z,11.08
2022-08-28T22:59:46.659Z,12.36
2022-08-28T23:02:34.309Z,11.74
2022-08-28T23:05:21.930Z,12.02
2022-08-28T23:08:09.521Z,11.94
2022-08-28T23:10:59.322Z,12.43
2022-08-28T23:13:47.365Z,13.19
2022-08-28T23:16:35.154Z,12.78
2022-08-28T23:19:23.088Z,12.07
2022-08-28T23:22:10.725Z,11.96
2022-08-28T23:24:58.321Z,12.13
2022-08-28T23:27:45.943Z,12.34
2022-08-28T23:30:33.533Z,12.25
2022-08-28T23:33:23.562Z,12.16
2022-08-28T23:36:11.740Z,12.65
2022-08-28T23:38:59.473Z,13.48
2022-08-28T23:41:47.395Z,13.41
2022-08-28T23:44:35.019Z,12.73
2022-08-28T23:47:22.981Z,11.40
2022-08-28T23:50:10.592Z,11.34
2022-08-28T23:52:58.229Z,11.57
2022-08-28T23:55:46.315Z,12.01
2022-08-28T23:58:36.266Z,11.68
